createdAt,value
2023-08-20T00:01:32.284Z,23.09
2023-08-20T00:04:06.225Z,23.07
2023-08-20T00:06:36.645Z,23.07
2023-08-20T00:09:07.791Z,23.08
2023-08-20T00:11:37.327Z,23.08
2023-08-20T00:14:07.247Z,23.05
2023-08-20T00:16:37.709Z,22.97
2023-08-20T00:19:10.885Z,22.93
2023-08-20T00:21:45.649Z,22.93
2023-08-20T00:24:16.692Z,22.90
2023-08-20T00:26:46.905Z,22.92
2023-08-20T00:29:16.482Z,22.91
2023-08-20T00:31:46.099Z,22.91
2023-08-20T00:34:18.557Z,22.90
2023-08-20T00:36:47.897Z,22.85
2023-08-20T00:39:17.467Z,22.77
2023-08-20T00:41:47.027Z,22.77
2023-08-20T00:44:16.597Z,22.77
2023-08-20T00:46:46.213Z,22.63
2023-08-20T00:49:18.577Z,22.71
2023-08-20T00:51:49.425Z,22.60
2023-08-20T00:54:19.390Z,22.55
2023-08-20T00:56:49.130Z,22.58
2023-08-20T00:59:19.110Z,22.49
2023-08-20T01:01:48.775Z,22.41
2023-08-20T01:04:21.245Z,22.44
2023-08-20T01:06:55.602Z,22.38
2023-08-20T01:09:34.623Z,22.35
2023-08-20T01:12:07.200Z,22.35
2023-08-20T01:14:36.916Z,22.32
2023-08-20T01:17:07.002Z,22.28
2023-08-20T01:19:39.572Z,22.27
2023-08-20T01:22:21.681Z,22.23
2023-08-20T01:24:59.932Z,22.25
2023-08-20T01:27:47.868Z,22.13
2023-08-20T01:30:21.844Z,22.16
2023-08-20T01:32:55.820Z,22.13
2023-08-20T01:35:29.108Z,22.06
2023-08-20T01:38:05.931Z,22.06
2023-08-20T01:40:35.772Z,22.03
2023-08-20T01:43:05.330Z,22.03
2023-08-20T01:45:37.656Z,21.96
2023-08-20T01:48:07.812Z,21.98
2023-08-20T01:50:39.268Z,21.99
2023-08-20T01:53:08.858Z,21.96
2023-08-20T01:55:39.370Z,21.95
2023-08-20T01:58:08.935Z,21.86
2023-08-20T02:00:41.155Z,21.89
2023-08-20T02:03:11.257Z,21.89
2023-08-20T02:05:41.299Z,21.90
2023-08-20T02:08:12.669Z,21.88
2023-08-20T02:10:43.031Z,21.81
2023-08-20T02:13:12.589Z,21.77
2023-08-20T02:15:44.735Z,21.79
2023-08-20T02:18:14.319Z,21.76
2023-08-20T02:20:47.170Z,21.75
2023-08-20T02:23:17.008Z,21.76
2023-08-20T02:25:47.764Z,21.76
2023-08-20T02:28:17.380Z,21.75
2023-08-20T02:30:50.447Z,21.74
2023-08-20T02:33:20.076Z,21.72
2023-08-20T02:35:49.615Z,21.70
2023-08-20T02:38:19.183Z,21.68
2023-08-20T02:40:48.824Z,21.69
2023-08-20T02:43:18.375Z,21.66
2023-08-20T02:45:50.567Z,21.67
2023-08-20T02:48:21.546Z,21.65
2023-08-20T02:50:51.140Z,21.60
2023-08-20T02:53:20.725Z,21.60
2023-08-20T02:55:50.741Z,21.60
2023-08-20T02:58:20.496Z,21.59
2023-08-20T03:00:53.881Z,21.60
2023-08-20T03:03:23.864Z,21.61
2023-08-20T03:05:53.470Z,21.59
2023-08-20T03:08:23.211Z,21.57
2023-08-20T03:10:52.978Z,21.51
2023-08-20T03:13:26.294Z,21.49
2023-08-20T03:15:58.428Z,21.44
2023-08-20T03:18:28.195Z,21.45
2023-08-20T03:20:58.791Z,21.42
2023-08-20T03:23:28.499Z,21.45
2023-08-20T03:26:01.474Z,21.44
2023-08-20T03:28:30.967Z,21.42
2023-08-20T03:31:06.044Z,21.43
2023-08-20T03:33:40.087Z,21.42
2023-08-20T03:36:09.817Z,21.40
2023-08-20T03:38:39.370Z,21.40
2023-08-20T03:41:08.990Z,21.40
2023-08-20T03:43:39.342Z,21.39
2023-08-20T03:46:12.115Z,21.37
2023-08-20T03:48:41.808Z,21.39
2023-08-20T03:51:11.420Z,21.36
2023-08-20T03:53:40.968Z,21.37
2023-08-20T03:56:10.680Z,21.39
2023-08-20T03:58:40.231Z,21.40
2023-08-20T04:01:12.792Z,21.40
2023-08-20T04:03:42.401Z,21.37
2023-08-20T04:06:12.013Z,21.35
2023-08-20T04:08:41.587Z,21.33
2023-08-20T04:11:11.132Z,21.33
2023-08-20T04:13:44.874Z,21.32
2023-08-20T04:16:17.571Z,21.31
2023-08-20T04:18:47.153Z,21.31
2023-08-20T04:21:16.727Z,21.27
2023-08-20T04:23:46.274Z,21.23
2023-08-20T04:26:15.916Z,21.21
2023-08-20T04:28:46.064Z,21.20
2023-08-20T04:31:18.310Z,21.18
2023-08-20T04:33:54.333Z,21.15
2023-08-20T04:36:30.616Z,21.09
2023-08-20T04:39:00.187Z,21.09
2023-08-20T04:41:32.978Z,21.05
2023-08-20T04:44:02.537Z,21.06
2023-08-20T04:46:34.874Z,21.07
2023-08-20T04:49:04.560Z,21.08
2023-08-20T04:51:34.138Z,21.05
2023-08-20T04:54:03.742Z,21.03
2023-08-20T04:56:33.351Z,21.02
2023-08-20T04:59:03.033Z,21.02
2023-08-20T05:02:01.133Z,21.00
2023-08-20T05:04:42.967Z,20.96
2023-08-20T05:07:12.536Z,20.97
2023-08-20T05:09:42.136Z,20.97
2023-08-20T05:12:11.992Z,20.96
2023-08-20T05:14:41.616Z,20.96
2023-08-20T05:17:13.820Z,20.99
2023-08-20T05:19:43.376Z,20.96
2023-08-20T05:22:13.135Z,20.99
2023-08-20T05:24:42.988Z,21.02
2023-08-20T05:27:15.610Z,21.06
2023-08-20T05:29:47.654Z,21.07
2023-08-20T05:32:20.905Z,21.08
2023-08-20T05:34:50.577Z,21.07
2023-08-20T05:37:20.256Z,21.06
2023-08-20T05:39:50.105Z,21.04
2023-08-20T05:42:20.615Z,21.06
2023-08-20T05:44:57.038Z,21.09
2023-08-20T05:47:32.955Z,21.07
2023-08-20T05:50:03.452Z,21.09
2023-08-20T05:52:33.205Z,21.12
2023-08-20T05:55:02.924Z,21.14
2023-08-20T05:57:33.874Z,21.16
2023-08-20T06:00:03.496Z,21.20
2023-08-20T06:02:45.440Z,21.13
2023-08-20T06:05:15.221Z,21.16
2023-08-20T06:07:44.798Z,21.17
2023-08-20T06:10:14.629Z,21.17
2023-08-20T06:12:44.222Z,21.20
2023-08-20T06:15:25.403Z,21.23
2023-08-20T06:17:57.584Z,21.25
2023-08-20T06:20:27.188Z,21.25
2023-08-20T06:22:56.742Z,21.26
2023-08-20T06:25:26.398Z,21.25
2023-08-20T06:27:55.957Z,21.29
2023-08-20T06:30:25.511Z,21.33
2023-08-20T06:32:57.942Z,21.37
2023-08-20T06:35:27.596Z,21.37
2023-08-20T06:37:57.156Z,21.39
2023-08-20T06:40:26.738Z,21.40
2023-08-20T06:42:56.296Z,21.42
2023-08-20T06:45:25.891Z,21.43
2023-08-20T06:47:58.862Z,21.46
2023-08-20T06:50:28.484Z,21.46
2023-08-20T06:52:58.052Z,21.48
2023-08-20T06:55:27.631Z,21.54
2023-08-20T06:57:57.177Z,21.54
2023-08-20T07:00:26.878Z,21.56
2023-08-20T07:02:59.083Z,21.60
2023-08-20T07:05:28.864Z,21.60
2023-08-20T07:07:58.460Z,21.63
2023-08-20T07:10:28.100Z,21.63
2023-08-20T07:12:57.651Z,21.66
2023-08-20T07:15:27.239Z,21.66
2023-08-20T07:17:59.422Z,21.69
2023-08-20T07:20:29.049Z,21.72
2023-08-20T07:22:58.623Z,21.74
2023-08-20T07:25:28.504Z,21.75
2023-08-20T07:28:00.611Z,21.77
2023-08-20T07:30:32.464Z,21.79
2023-08-20T07:33:06.478Z,21.82
2023-08-20T07:35:36.879Z,21.85
2023-08-20T07:38:07.031Z,21.86
2023-08-20T07:40:36.599Z,21.89
2023-08-20T07:43:06.279Z,21.93
2023-08-20T07:45:35.871Z,21.92
2023-08-20T07:48:08.986Z,21.95
2023-08-20T07:50:38.683Z,21.96
2023-08-20T07:53:08.302Z,21.98
2023-08-20T07:55:38.181Z,22.00
2023-08-20T07:58:08.020Z,22.05
2023-08-20T08:00:37.596Z,22.05
2023-08-20T08:03:11.023Z,22.07
2023-08-20T08:05:41.026Z,22.08
2023-08-20T08:08:10.885Z,22.11
2023-08-20T08:10:40.476Z,22.11
2023-08-20T08:13:11.483Z,22.14
2023-08-20T08:15:41.470Z,22.15
2023-08-20T08:18:13.807Z,22.19
2023-08-20T08:20:43.558Z,22.19
2023-08-20T08:23:13.230Z,22.20
2023-08-20T08:25:43.817Z,22.21
2023-08-20T08:28:13.461Z,22.20
2023-08-20T08:30:43.782Z,22.21
2023-08-20T08:33:15.971Z,22.28
2023-08-20T08:35:45.581Z,22.24
2023-08-20T08:38:15.174Z,22.31
2023-08-20T08:40:46.534Z,22.37
2023-08-20T08:43:18.512Z,22.43
2023-08-20T08:45:51.689Z,22.49
2023-08-20T08:48:25.294Z,22.51
2023-08-20T08:50:56.090Z,22.51
2023-08-20T08:53:28.726Z,22.50
2023-08-20T08:55:58.686Z,22.57
2023-08-20T08:58:28.244Z,22.55
2023-08-20T09:00:58.066Z,22.61
2023-08-20T09:03:30.309Z,22.62
2023-08-20T09:06:02.496Z,22.62
2023-08-20T09:08:33.427Z,22.67
2023-08-20T09:11:05.765Z,22.71
2023-08-20T09:13:40.179Z,22.66
2023-08-20T09:16:10.951Z,22.73
2023-08-20T09:18:48.925Z,22.78
2023-08-20T09:21:18.459Z,22.78
2023-08-20T09:23:49.688Z,22.77
2023-08-20T09:26:19.248Z,22.82
2023-08-20T09:28:50.191Z,22.84
2023-08-20T09:31:19.856Z,22.82
2023-08-20T09:33:56.370Z,22.80
2023-08-20T09:36:34.634Z,22.75
2023-08-20T09:39:05.141Z,22.75
2023-08-20T09:41:34.845Z,22.73
2023-08-20T09:44:07.809Z,22.73
2023-08-20T09:46:39.274Z,22.73
2023-08-20T09:49:15.227Z,22.76
2023-08-20T09:51:46.364Z,22.76
2023-08-20T09:54:23.443Z,22.80
2023-08-20T09:56:58.237Z,22.81
2023-08-20T09:59:28.391Z,22.84
2023-08-20T10:01:59.632Z,22.83
2023-08-20T10:04:32.918Z,22.84
2023-08-20T10:07:03.049Z,22.90
2023-08-20T10:09:33.171Z,22.92
2023-08-20T10:12:04.471Z,22.90
2023-08-20T10:14:34.077Z,22.90
2023-08-20T10:17:09.534Z,22.93
2023-08-20T10:19:42.610Z,22.94
2023-08-20T10:22:12.685Z,22.97
2023-08-20T10:24:51.065Z,22.96
2023-08-20T10:27:31.477Z,23.00
2023-08-20T10:30:02.633Z,23.01
2023-08-20T10:32:54.532Z,23.04
2023-08-20T10:35:31.538Z,23.03
2023-08-20T10:38:03.338Z,23.11
2023-08-20T10:40:51.293Z,23.22
2023-08-20T10:43:36.598Z,23.24
2023-08-20T10:46:10.865Z,23.30
2023-08-20T10:48:42.473Z,23.38
2023-08-20T10:51:18.693Z,23.36
2023-08-20T10:54:08.056Z,23.48
2023-08-20T10:56:47.889Z,23.53
2023-08-20T10:59:19.259Z,23.57
2023-08-20T11:01:49.759Z,23.68
2023-08-20T11:04:20.620Z,23.71
2023-08-20T11:06:56.575Z,23.74
2023-08-20T11:09:27.182Z,23.77
2023-08-20T11:11:57.108Z,23.89
2023-08-20T11:14:26.798Z,23.89
2023-08-20T11:16:56.624Z,23.88
2023-08-20T11:19:27.446Z,23.93
2023-08-20T11:21:59.658Z,24.03
2023-08-20T11:24:33.553Z,24.03
2023-08-20T11:27:03.245Z,24.08
2023-08-20T11:29:32.837Z,24.16
2023-08-20T11:32:06.736Z,24.10
2023-08-20T11:34:36.689Z,24.15
2023-08-20T11:37:08.921Z,24.23
2023-08-20T11:39:40.586Z,24.31
2023-08-20T11:42:10.337Z,24.32
2023-08-20T11:44:47.355Z,24.56
2023-08-20T11:47:18.159Z,24.58
2023-08-20T11:49:47.967Z,24.61
2023-08-20T11:52:22.965Z,24.65
2023-08-20T11:54:52.595Z,24.75
2023-08-20T11:57:22.404Z,24.94
2023-08-20T11:59:51.968Z,24.92
2023-08-20T12:02:39.264Z,24.87
2023-08-20T12:05:11.053Z,24.91
2023-08-20T12:07:43.328Z,25.02
2023-08-20T12:10:25.933Z,25.15
2023-08-20T12:12:55.625Z,25.21
2023-08-20T12:15:26.002Z,25.15
2023-08-20T12:18:06.201Z,25.29
2023-08-20T12:20:37.991Z,25.33
2023-08-20T12:23:10.746Z,25.48
2023-08-20T12:25:40.545Z,25.58
2023-08-20T12:28:10.369Z,25.63
2023-08-20T12:30:40.362Z,25.55
2023-08-20T12:33:10.396Z,25.68
2023-08-20T12:35:40.036Z,25.71
2023-08-20T12:38:12.751Z,25.69
2023-08-20T12:40:42.460Z,25.68
2023-08-20T12:43:12.078Z,25.65
2023-08-20T12:45:41.786Z,25.65
2023-08-20T12:48:11.329Z,25.56
2023-08-20T12:50:40.960Z,25.55
2023-08-20T12:53:14.179Z,25.59
2023-08-20T12:55:43.779Z,25.62
2023-08-20T12:58:13.324Z,25.50
2023-08-20T13:00:43.269Z,25.47
2023-08-20T13:03:14.210Z,25.41
2023-08-20T13:05:44.548Z,25.49
2023-08-20T13:08:17.499Z,25.55
2023-08-20T13:10:54.353Z,25.47
2023-08-20T13:13:25.354Z,25.37
2023-08-20T13:15:56.036Z,25.44
2023-08-20T13:18:27.647Z,25.58
2023-08-20T13:20:57.232Z,25.74
2023-08-20T13:23:29.400Z,25.82
2023-08-20T13:25:59.055Z,25.84
2023-08-20T13:28:28.700Z,26.15
2023-08-20T13:30:58.402Z,26.17
2023-08-20T13:33:28.031Z,26.22
2023-08-20T13:35:58.677Z,26.28
2023-08-20T13:38:30.867Z,26.25
2023-08-20T13:41:00.482Z,26.24
2023-08-20T13:43:30.138Z,26.17
2023-08-20T13:45:59.723Z,26.18
2023-08-20T13:48:29.343Z,26.26
2023-08-20T13:50:59.025Z,26.35
2023-08-20T13:53:31.260Z,26.17
2023-08-20T13:56:00.962Z,26.22
2023-08-20T13:58:30.558Z,26.27
2023-08-20T14:01:00.353Z,26.29
2023-08-20T14:03:30.691Z,26.23
2023-08-20T14:06:00.270Z,26.14
2023-08-20T14:08:32.471Z,26.09
2023-08-20T14:11:03.506Z,26.13
2023-08-20T14:13:33.410Z,26.16
2023-08-20T14:16:03.557Z,26.13
2023-08-20T14:18:33.218Z,26.23
2023-08-20T14:21:03.925Z,26.22
2023-08-20T14:23:36.278Z,26.17
2023-08-20T14:26:05.670Z,26.15
2023-08-20T14:28:35.248Z,26.09
2023-08-20T14:31:17.876Z,26.01
2023-08-20T14:33:47.511Z,25.98
2023-08-20T14:36:17.190Z,26.01
2023-08-20T14:38:49.346Z,26.00
2023-08-20T14:41:19.010Z,26.02
2023-08-20T14:43:48.592Z,26.00
2023-08-20T14:46:18.198Z,26.01
2023-08-20T14:48:47.782Z,26.00
2023-08-20T14:51:17.484Z,25.96
2023-08-20T14:53:49.668Z,25.98
2023-08-20T14:56:19.272Z,25.90
2023-08-20T14:58:48.949Z,25.91
2023-08-20T15:01:18.948Z,25.95
2023-08-20T15:03:48.627Z,25.87
2023-08-20T15:06:22.638Z,25.93
2023-08-20T15:08:54.853Z,25.84
2023-08-20T15:11:24.524Z,25.82
2023-08-20T15:13:54.145Z,25.88
2023-08-20T15:16:23.898Z,25.87
2023-08-20T15:18:53.544Z,25.88
2023-08-20T15:21:23.228Z,25.90
2023-08-20T15:23:55.724Z,25.94
2023-08-20T15:26:25.105Z,25.92
2023-08-20T15:28:54.660Z,25.86
2023-08-20T15:31:24.376Z,25.87
2023-08-20T15:33:54.558Z,25.84
2023-08-20T15:36:24.581Z,25.89
2023-08-20T15:38:56.812Z,25.86
2023-08-20T15:41:26.393Z,25.87
2023-08-20T15:43:56.024Z,25.82
2023-08-20T15:46:27.093Z,25.84
2023-08-20T15:48:57.142Z,25.80
2023-08-20T15:51:26.843Z,25.80
2023-08-20T15:53:59.416Z,25.80
2023-08-20T15:56:29.425Z,25.77
2023-08-20T15:58:59.229Z,25.76
2023-08-20T16:01:29.512Z,25.81
2023-08-20T16:03:59.348Z,25.79
2023-08-20T16:06:29.154Z,25.80
2023-08-20T16:09:01.429Z,25.80
2023-08-20T16:11:31.085Z,25.77
2023-08-20T16:14:00.757Z,25.76
2023-08-20T16:16:32.784Z,25.77
2023-08-20T16:19:02.632Z,25.77
2023-08-20T16:21:32.263Z,25.82
2023-08-20T16:24:05.491Z,25.76
2023-08-20T16:26:35.686Z,25.74
2023-08-20T16:29:05.456Z,25.75
2023-08-20T16:31:35.568Z,25.74
2023-08-20T16:34:05.216Z,25.76
2023-08-20T16:36:35.451Z,25.73
2023-08-20T16:39:07.743Z,25.74
2023-08-20T16:41:37.144Z,25.74
2023-08-20T16:44:06.966Z,25.76
2023-08-20T16:46:38.637Z,25.75
2023-08-20T16:49:08.321Z,25.73
2023-08-20T16:51:37.984Z,25.74
2023-08-20T16:54:10.465Z,25.73
2023-08-20T16:56:40.187Z,25.69
2023-08-20T16:59:09.815Z,25.69
2023-08-20T17:01:39.464Z,25.66
2023-08-20T17:04:09.225Z,25.65
2023-08-20T17:06:38.867Z,25.64
2023-08-20T17:09:11.133Z,25.63
2023-08-20T17:11:40.559Z,25.60
2023-08-20T17:14:10.674Z,25.57
2023-08-20T17:16:40.880Z,25.56
2023-08-20T17:19:10.568Z,25.59
2023-08-20T17:21:41.928Z,25.57
2023-08-20T17:24:14.135Z,25.55
2023-08-20T17:26:43.919Z,25.55
2023-08-20T17:29:13.622Z,25.52
2023-08-20T17:31:43.937Z,25.49
2023-08-20T17:34:13.552Z,25.51
2023-08-20T17:36:43.170Z,25.51
2023-08-20T17:39:16.716Z,25.49
2023-08-20T17:41:46.579Z,25.51
2023-08-20T17:44:16.215Z,25.48
2023-08-20T17:46:46.938Z,25.44
2023-08-20T17:49:18.188Z,25.47
2023-08-20T17:51:48.093Z,25.41
2023-08-20T17:54:20.517Z,25.41
2023-08-20T17:56:50.117Z,25.41
2023-08-20T17:59:19.765Z,25.39
2023-08-20T18:01:49.418Z,25.37
2023-08-20T18:04:19.115Z,25.37
2023-08-20T18:06:48.701Z,25.38
2023-08-20T18:09:21.130Z,25.35
2023-08-20T18:11:50.715Z,25.33
2023-08-20T18:14:20.401Z,25.30
2023-08-20T18:16:50.199Z,25.26
2023-08-20T18:19:19.828Z,25.25
2023-08-20T18:21:49.868Z,25.27
2023-08-20T18:24:22.096Z,25.21
2023-08-20T18:26:51.680Z,25.21
2023-08-20T18:29:21.224Z,25.20
2023-08-20T18:31:52.158Z,25.18
2023-08-20T18:34:22.037Z,25.18
2023-08-20T18:36:52.021Z,25.19
2023-08-20T18:39:24.172Z,25.18
2023-08-20T18:41:54.225Z,25.18
2023-08-20T18:44:23.923Z,25.17
2023-08-20T18:46:53.602Z,25.17
2023-08-20T18:49:23.236Z,25.14
2023-08-20T18:51:53.083Z,25.14
2023-08-20T18:54:25.371Z,25.11
2023-08-20T18:56:54.744Z,25.10
2023-08-20T18:59:24.340Z,25.06
2023-08-20T19:01:54.228Z,25.04
2023-08-20T19:04:23.801Z,25.02
2023-08-20T19:06:54.174Z,24.99
2023-08-20T19:09:26.313Z,24.99
2023-08-20T19:11:57.316Z,24.96
2023-08-20T19:14:27.110Z,24.95
2023-08-20T19:16:56.690Z,24.91
2023-08-20T19:19:26.285Z,24.83
2023-08-20T19:21:55.926Z,24.74
2023-08-20T19:24:28.153Z,24.70
2023-08-20T19:26:58.637Z,24.66
2023-08-20T19:29:28.366Z,24.59
2023-08-20T19:31:58.018Z,24.54
2023-08-20T19:34:28.167Z,24.49
2023-08-20T19:36:57.849Z,24.46
2023-08-20T19:39:30.004Z,24.43
2023-08-20T19:41:59.573Z,24.38
2023-08-20T19:44:29.152Z,24.34
2023-08-20T19:46:58.706Z,24.31
2023-08-20T19:49:28.286Z,24.32
2023-08-20T19:51:57.813Z,24.31
2023-08-20T19:54:30.079Z,24.26
2023-08-20T19:56:59.435Z,24.28
2023-08-20T19:59:29.079Z,24.28
2023-08-20T20:01:58.714Z,24.22
2023-08-20T20:04:29.542Z,24.20
2023-08-20T20:07:09.429Z,24.19
2023-08-20T20:09:49.244Z,24.17
2023-08-20T20:12:18.864Z,24.16
2023-08-20T20:14:48.574Z,24.14
2023-08-20T20:17:18.198Z,24.11
2023-08-20T20:19:48.363Z,24.10
2023-08-20T20:22:17.967Z,24.09
2023-08-20T20:24:50.837Z,24.05
2023-08-20T20:27:20.438Z,24.06
2023-08-20T20:29:50.031Z,24.05
2023-08-20T20:32:20.444Z,24.04
2023-08-20T20:34:50.001Z,23.97
2023-08-20T20:37:20.031Z,23.96
2023-08-20T20:39:52.163Z,23.97
2023-08-20T20:42:21.740Z,23.94
2023-08-20T20:44:51.798Z,23.97
2023-08-20T20:47:21.501Z,23.93
2023-08-20T20:49:51.174Z,23.85
2023-08-20T20:52:23.358Z,23.83
2023-08-20T20:54:55.614Z,23.83
2023-08-20T20:57:25.419Z,23.84
2023-08-20T20:59:55.245Z,23.79
2023-08-20T21:02:24.889Z,23.75
2023-08-20T21:04:54.486Z,23.78
2023-08-20T21:07:24.042Z,23.79
2023-08-20T21:09:57.028Z,23.69
2023-08-20T21:12:26.779Z,23.67
2023-08-20T21:14:56.343Z,23.63
2023-08-20T21:17:26.034Z,23.66
2023-08-20T21:19:58.661Z,23.64
2023-08-20T21:22:28.877Z,23.64
2023-08-20T21:25:01.080Z,23.64
2023-08-20T21:27:30.686Z,23.64
2023-08-20T21:30:00.358Z,23.58
2023-08-20T21:32:31.770Z,23.60
2023-08-20T21:35:06.679Z,23.58
2023-08-20T21:37:36.326Z,23.54
2023-08-20T21:40:09.798Z,23.54
2023-08-20T21:42:39.650Z,23.55
2023-08-20T21:45:10.670Z,23.53
2023-08-20T21:47:48.121Z,23.50
2023-08-20T21:50:19.052Z,23.52
2023-08-20T21:52:49.037Z,23.53
2023-08-20T21:55:21.396Z,23.52
2023-08-20T21:57:51.020Z,23.51
2023-08-20T22:00:20.778Z,23.48
2023-08-20T22:02:51.637Z,23.46
2023-08-20T22:05:25.629Z,23.44
2023-08-20T22:07:55.330Z,23.38
2023-08-20T22:10:27.890Z,23.34
2023-08-20T22:12:57.632Z,23.35
2023-08-20T22:15:27.379Z,23.32
2023-08-20T22:17:56.990Z,23.23
2023-08-20T22:20:26.663Z,23.27
2023-08-20T22:22:56.726Z,23.25
2023-08-20T22:25:28.913Z,23.22
2023-08-20T22:27:58.498Z,23.21
2023-08-20T22:30:28.092Z,23.22
2023-08-20T22:32:58.136Z,23.18
2023-08-20T22:35:27.831Z,23.14
2023-08-20T22:38:09.334Z,23.11
2023-08-20T22:40:43.510Z,23.11
2023-08-20T22:43:13.287Z,23.07
2023-08-20T22:45:42.884Z,23.05
2023-08-20T22:48:12.496Z,23.00
2023-08-20T22:50:42.148Z,22.96
2023-08-20T22:53:11.757Z,22.94
2023-08-20T22:55:43.932Z,22.96
2023-08-20T22:58:13.523Z,22.93
2023-08-20T23:00:43.205Z,22.91
2023-08-20T23:03:12.854Z,22.87
2023-08-20T23:05:42.519Z,22.85
2023-08-20T23:08:12.087Z,22.87
2023-08-20T23:10:44.252Z,22.85
2023-08-20T23:13:13.882Z,22.82
2023-08-20T23:15:44.990Z,22.81
2023-08-20T23:18:14.774Z,22.76
2023-08-20T23:20:44.385Z,22.74
2023-08-20T23:23:14.071Z,22.73
2023-08-20T23:25:46.747Z,22.71
2023-08-20T23:28:16.353Z,22.70
2023-08-20T23:30:47.082Z,22.75
2023-08-20T23:33:17.206Z,22.71
2023-08-20T23:35:47.136Z,22.64
2023-08-20T23:38:17.109Z,22.64
2023-08-20T23:40:49.297Z,22.60
2023-08-20T23:43:18.924Z,22.58
2023-08-20T23:45:48.468Z,22.54
2023-08-20T23:48:18.058Z,22.57
2023-08-20T23:50:47.656Z,22.54
2023-08-20T23:53:32.146Z,22.49
2023-08-20T23:56:04.378Z,22.49
2023-08-20T23:58:34.034Z,22.48
